createdAt,value
2018-08-23T00:00:35.563Z,8.83
2018-08-23T00:03:08.793Z,9.10
2018-08-23T00:05:37.301Z,9.63
2018-08-23T00:08:09.386Z,9.70
2018-08-23T00:10:37.840Z,9.80
2018-08-23T00:13:06.512Z,9.53
2018-08-23T00:15:35.036Z,8.77
2018-08-23T00:18:03.511Z,9.70
2018-08-23T00:20:32.030Z,7.93
2018-08-23T00:23:00.612Z,9.03
2018-08-23T00:25:29.122Z,8.07
2018-08-23T00:27:57.593Z,8.50
2018-08-23T00:30:29.083Z,8.43
2018-08-23T00:32:57.952Z,8.73
2018-08-23T00:35:26.384Z,9.23
2018-08-23T00:37:54.864Z,8.13
2018-08-23T00:40:23.352Z,8.70
2018-08-23T00:42:57.110Z,9.07
2018-08-23T00:45:25.642Z,8.00
2018-08-23T00:47:54.131Z,8.77
2018-08-23T00:51:03.611Z,8.47
2018-08-23T00:53:33.414Z,8.97
2018-08-23T00:56:12.793Z,8.47
2018-08-23T00:58:44.307Z,9.30
2018-08-23T01:01:13.656Z,10.63
2018-08-23T01:03:42.471Z,8.17
2018-08-23T01:06:10.964Z,8.83
2018-08-23T01:08:39.427Z,9.17
2018-08-23T01:11:08.406Z,9.33
2018-08-23T01:13:36.920Z,10.37
2018-08-23T01:16:05.379Z,9.90
2018-08-23T01:18:33.811Z,8.27
2018-08-23T01:21:06.275Z,7.83
2018-08-23T01:23:35.038Z,7.87
2018-08-23T01:26:04.867Z,7.90
2018-08-23T01:28:33.347Z,8.67
2018-08-23T01:31:07.298Z,9.00
2018-08-23T01:33:35.773Z,8.30
2018-08-23T01:36:04.281Z,9.30
2018-08-23T01:38:32.740Z,9.47
2018-08-23T01:41:06.584Z,9.40
2018-08-23T01:43:35.044Z,8.60
2018-08-23T01:46:03.570Z,8.57
2018-08-23T01:48:32.560Z,8.83
2018-08-23T01:51:01.038Z,8.47
2018-08-23T01:53:34.560Z,8.50
2018-08-23T01:56:03.024Z,8.97
2018-08-23T01:58:31.594Z,9.20
2018-08-23T02:01:08.667Z,8.37
2018-08-23T02:03:37.158Z,9.10
2018-08-23T02:06:05.708Z,9.07
2018-08-23T02:08:34.162Z,9.67
2018-08-23T02:11:02.636Z,9.00
2018-08-23T02:13:31.119Z,9.13
2018-08-23T02:16:02.872Z,9.40
2018-08-23T02:18:31.720Z,9.60
2018-08-23T02:21:05.556Z,9.30
2018-08-23T02:23:35.137Z,9.73
2018-08-23T02:26:03.702Z,9.63
2018-08-23T02:28:32.151Z,9.83
2018-08-23T02:31:00.595Z,8.93
2018-08-23T02:33:29.050Z,9.63
2018-08-23T02:36:30.090Z,8.93
2018-08-23T02:39:04.367Z,9.40
2018-08-23T02:41:32.849Z,9.47
2018-08-23T02:44:01.327Z,10.53
2018-08-23T02:46:31.399Z,11.17
2018-08-23T02:48:59.895Z,10.27
2018-08-23T02:51:39.938Z,11.27
2018-08-23T02:54:10.978Z,9.93
2018-08-23T02:56:39.528Z,10.27
2018-08-23T02:59:08.079Z,11.10
2018-08-23T03:01:40.403Z,10.87
2018-08-23T03:04:14.530Z,10.07
2018-08-23T03:06:49.405Z,9.87
2018-08-23T03:09:19.591Z,10.40
2018-08-23T03:11:49.166Z,10.07
2018-08-23T03:14:18.376Z,9.53
2018-08-23T03:16:51.609Z,10.77
2018-08-23T03:19:20.051Z,10.43
2018-08-23T03:22:03.435Z,10.77
2018-08-23T03:24:31.895Z,10.53
2018-08-23T03:27:00.382Z,10.93
2018-08-23T03:29:28.859Z,11.27
2018-08-23T03:31:57.400Z,10.67
2018-08-23T03:34:25.909Z,12.30
2018-08-23T03:36:54.359Z,11.27
2018-08-23T03:39:22.819Z,10.50
2018-08-23T03:41:51.323Z,10.67
2018-08-23T03:44:25.573Z,10.97
2018-08-23T03:46:54.860Z,10.50
2018-08-23T03:49:25.939Z,10.20
2018-08-23T03:51:55.491Z,10.20
2018-08-23T03:54:23.987Z,10.00
2018-08-23T03:57:03.238Z,10.63
2018-08-23T03:59:31.698Z,10.50
2018-08-23T04:02:00.147Z,10.73
2018-08-23T04:04:28.576Z,10.27
2018-08-23T04:06:57.048Z,10.53
2018-08-23T04:09:25.498Z,9.27
2018-08-23T04:11:53.973Z,8.63
2018-08-23T04:14:22.469Z,9.00
2018-08-23T04:16:50.941Z,8.70
2018-08-23T04:19:19.376Z,8.70
2018-08-23T04:21:47.835Z,8.97
2018-08-23T04:24:16.392Z,9.60
2018-08-23T04:26:44.859Z,9.57
2018-08-23T04:29:14.868Z,9.57
2018-08-23T04:31:43.345Z,10.60
2018-08-23T04:34:11.822Z,11.17
2018-08-23T04:36:40.277Z,10.83
2018-08-23T04:39:10.276Z,10.10
2018-08-23T04:41:38.775Z,10.87
2018-08-23T04:44:11.270Z,10.73
2018-08-23T04:46:39.739Z,10.23
2018-08-23T04:49:08.268Z,9.33
2018-08-23T04:51:37.577Z,9.17
2018-08-23T04:54:06.353Z,9.87
2018-08-23T04:56:34.822Z,10.40
2018-08-23T04:59:03.356Z,10.70
2018-08-23T05:01:31.825Z,12.07
2018-08-23T05:04:00.343Z,12.93
2018-08-23T05:06:28.796Z,13.00
2018-08-23T05:08:57.217Z,12.17
2018-08-23T05:11:25.725Z,12.20
2018-08-23T05:13:54.183Z,11.90
2018-08-23T05:16:22.689Z,11.00
2018-08-23T05:18:51.152Z,11.27
2018-08-23T05:21:19.632Z,11.33
2018-08-23T05:23:48.155Z,12.23
2018-08-23T05:26:18.857Z,11.37
2018-08-23T05:28:57.018Z,12.23
2018-08-23T05:31:26.220Z,11.20
2018-08-23T05:33:54.793Z,11.30
2018-08-23T05:36:23.228Z,12.50
2018-08-23T05:38:51.707Z,11.67
2018-08-23T05:41:20.201Z,10.77
2018-08-23T05:43:53.158Z,10.53
2018-08-23T05:46:21.680Z,11.23
2018-08-23T05:48:50.169Z,10.87
2018-08-23T05:51:19.828Z,11.70
2018-08-23T05:53:51.466Z,11.63
2018-08-23T05:56:20.252Z,11.17
2018-08-23T05:58:48.741Z,12.63
2018-08-23T06:01:17.224Z,11.03
2018-08-23T06:03:45.722Z,10.90
2018-08-23T06:06:14.182Z,10.77
2018-08-23T06:08:44.184Z,10.40
2018-08-23T06:11:12.757Z,10.10
2018-08-23T06:13:41.210Z,10.03
2018-08-23T06:16:09.667Z,10.10
2018-08-23T06:18:38.171Z,10.47
2018-08-23T06:21:06.736Z,10.27
2018-08-23T06:23:57.395Z,10.70
2018-08-23T06:26:42.304Z,10.63
2018-08-23T06:29:13.694Z,10.90
2018-08-23T06:31:48.634Z,10.03
2018-08-23T06:34:17.114Z,10.47
2018-08-23T06:36:46.503Z,8.90
2018-08-23T06:39:15.014Z,9.20
2018-08-23T06:41:43.612Z,9.17
2018-08-23T06:44:12.300Z,9.47
2018-08-23T06:46:40.757Z,9.73
2018-08-23T06:49:09.278Z,9.13
2018-08-23T06:51:37.754Z,9.77
2018-08-23T06:54:05.883Z,9.43
2018-08-23T06:56:38.783Z,10.20
2018-08-23T06:59:07.970Z,8.60
2018-08-23T07:01:41.813Z,9.10
2018-08-23T07:04:13.029Z,9.40
2018-08-23T07:06:41.838Z,8.53
2018-08-23T07:09:13.378Z,8.17
2018-08-23T07:11:42.020Z,8.60
2018-08-23T07:14:12.329Z,8.13
2018-08-23T07:16:41.808Z,8.07
2018-08-23T07:19:15.901Z,8.17
2018-08-23T07:21:44.342Z,7.60
2018-08-23T07:24:18.461Z,8.50
2018-08-23T07:26:46.881Z,8.87
2018-08-23T07:29:15.373Z,8.03
2018-08-23T07:32:17.790Z,8.30
2018-08-23T07:34:55.013Z,8.30
2018-08-23T07:37:23.495Z,8.70
2018-08-23T07:39:57.160Z,9.03
2018-08-23T07:42:27.530Z,8.30
2018-08-23T07:44:56.471Z,9.20
2018-08-23T07:47:24.954Z,9.17
2018-08-23T07:49:54.966Z,8.30
2018-08-23T07:52:24.001Z,9.33
2018-08-23T07:54:52.449Z,9.30
2018-08-23T07:57:21.109Z,9.37
2018-08-23T07:59:49.969Z,9.10
2018-08-23T08:02:18.412Z,9.50
2018-08-23T08:04:46.870Z,9.27
2018-08-23T08:07:18.340Z,7.97
2018-08-23T08:09:46.788Z,9.00
2018-08-23T08:12:20.512Z,8.07
2018-08-23T08:14:49.053Z,8.17
2018-08-23T08:17:22.635Z,7.60
2018-08-23T08:19:58.684Z,7.50
2018-08-23T08:22:27.162Z,8.30
2018-08-23T08:25:00.237Z,8.43
2018-08-23T08:27:29.127Z,7.30
2018-08-23T08:29:57.605Z,7.57
2018-08-23T08:32:26.080Z,7.97
2018-08-23T08:34:56.559Z,7.97
2018-08-23T08:37:25.245Z,8.30
2018-08-23T08:39:53.710Z,8.23
2018-08-23T08:42:26.199Z,8.20
2018-08-23T08:44:58.704Z,8.17
2018-08-23T08:47:27.519Z,8.00
2018-08-23T08:49:56.032Z,8.23
2018-08-23T08:52:24.497Z,8.73
2018-08-23T08:54:52.933Z,8.27
2018-08-23T08:57:24.697Z,8.03
2018-08-23T08:59:53.401Z,8.40
2018-08-23T09:02:21.891Z,8.10
2018-08-23T09:04:50.354Z,8.67
2018-08-23T09:07:18.879Z,8.30
2018-08-23T09:09:47.349Z,7.73
2018-08-23T09:12:15.844Z,8.00
2018-08-23T09:14:44.287Z,8.40
2018-08-23T09:17:55.326Z,8.40
2018-08-23T09:20:23.855Z,8.30
2018-08-23T09:22:53.964Z,9.18
2018-08-23T09:25:24.127Z,7.65
2018-08-23T09:27:52.764Z,7.92
2018-08-23T09:30:28.546Z,7.85
2018-08-23T09:32:57.544Z,7.80
2018-08-23T09:35:29.993Z,7.58
2018-08-23T09:37:59.565Z,7.70
2018-08-23T09:40:28.656Z,7.42
2018-08-23T09:42:57.593Z,7.65
2018-08-23T09:45:26.156Z,7.15
2018-08-23T09:47:54.685Z,6.90
2018-08-23T09:50:23.214Z,6.87
2018-08-23T09:52:51.755Z,7.75
2018-08-23T09:55:21.212Z,7.10
2018-08-23T09:57:49.719Z,8.00
2018-08-23T10:00:23.426Z,7.87
2018-08-23T10:02:57.360Z,7.78
2018-08-23T10:05:31.280Z,7.67
2018-08-23T10:08:05.023Z,7.97
2018-08-23T10:10:38.725Z,7.70
2018-08-23T10:13:12.580Z,8.75
2018-08-23T10:15:43.330Z,8.45
2018-08-23T10:18:17.076Z,8.75
2018-08-23T10:20:50.902Z,9.10
2018-08-23T10:23:23.249Z,9.08
2018-08-23T10:25:53.904Z,8.83
2018-08-23T10:28:24.465Z,8.88
2018-08-23T10:30:53.305Z,9.28
2018-08-23T10:33:21.804Z,10.10
2018-08-23T10:35:56.186Z,9.08
2018-08-23T10:38:26.024Z,9.23
2018-08-23T10:40:58.730Z,10.25
2018-08-23T10:43:32.629Z,9.28
2018-08-23T10:46:02.942Z,9.98
2018-08-23T10:48:31.461Z,9.60
2018-08-23T10:51:00.005Z,9.93
2018-08-23T10:53:28.516Z,9.73
2018-08-23T10:55:56.994Z,10.53
2018-08-23T10:58:25.470Z,9.10
2018-08-23T11:00:53.926Z,8.90
2018-08-23T11:03:22.369Z,8.80
2018-08-23T11:05:50.894Z,10.08
2018-08-23T11:08:35.938Z,9.55
2018-08-23T11:11:09.887Z,9.30
2018-08-23T11:13:43.707Z,8.93
2018-08-23T11:16:17.608Z,8.80
2018-08-23T11:18:51.336Z,8.45
2018-08-23T11:21:19.809Z,8.58
2018-08-23T11:23:48.368Z,9.13
2018-08-23T11:26:23.333Z,8.85
2018-08-23T11:28:52.140Z,9.10
2018-08-23T11:31:26.051Z,9.08
2018-08-23T11:33:54.706Z,9.13
2018-08-23T11:36:23.427Z,8.58
2018-08-23T11:38:51.907Z,8.63
2018-08-23T11:41:20.429Z,8.53
2018-08-23T11:43:49.267Z,8.95
2018-08-23T11:46:19.037Z,9.30
2018-08-23T11:48:48.153Z,8.68
2018-08-23T11:51:17.471Z,8.15
2018-08-23T11:53:46.507Z,8.58
2018-08-23T11:56:15.000Z,8.00
2018-08-23T11:58:43.779Z,8.93
2018-08-23T12:01:15.486Z,9.20
2018-08-23T12:03:44.329Z,8.08
2018-08-23T12:06:14.980Z,8.33
2018-08-23T12:08:43.875Z,7.70
2018-08-23T12:11:12.399Z,9.50
2018-08-23T12:13:48.722Z,8.03
2018-08-23T12:16:17.180Z,8.95
2018-08-23T12:18:45.658Z,8.78
2018-08-23T12:21:14.111Z,8.35
2018-08-23T12:23:42.560Z,8.95
2018-08-23T12:26:11.107Z,8.15
2018-08-23T12:28:44.900Z,8.98
2018-08-23T12:31:13.397Z,8.33
2018-08-23T12:33:41.898Z,8.50
2018-08-23T12:36:10.723Z,8.55
2018-08-23T12:38:44.654Z,8.20
2018-08-23T12:41:18.391Z,7.50
2018-08-23T12:43:48.922Z,7.92
2018-08-23T12:46:17.747Z,7.42
2018-08-23T12:48:46.567Z,8.08
2018-08-23T12:51:15.060Z,7.05
2018-08-23T12:53:43.510Z,7.87
2018-08-23T12:56:11.972Z,7.50
2018-08-23T12:58:40.481Z,7.00
2018-08-23T13:01:08.940Z,6.80
2018-08-23T13:03:37.445Z,7.85
2018-08-23T13:06:05.981Z,7.42
2018-08-23T13:08:34.553Z,7.58
2018-08-23T13:11:03.047Z,7.30
2018-08-23T13:13:31.515Z,7.30
2018-08-23T13:15:59.950Z,7.08
2018-08-23T13:18:28.459Z,7.08
2018-08-23T13:20:56.915Z,7.33
2018-08-23T13:23:25.406Z,7.47
2018-08-23T13:25:54.746Z,7.28
2018-08-23T13:28:23.747Z,6.47
2018-08-23T13:30:52.387Z,7.10
2018-08-23T13:33:20.908Z,7.42
2018-08-23T13:35:49.700Z,8.28
2018-08-23T13:38:18.385Z,8.13
2018-08-23T13:40:46.882Z,7.25
2018-08-23T13:43:15.359Z,7.40
2018-08-23T13:45:43.892Z,8.10
2018-08-23T13:48:12.427Z,7.50
2018-08-23T13:50:40.898Z,7.70
2018-08-23T13:53:09.402Z,7.60
2018-08-23T13:55:37.996Z,8.53
2018-08-23T13:58:06.495Z,8.13
2018-08-23T14:00:38.088Z,8.65
2018-08-23T14:03:07.050Z,7.75
2018-08-23T14:05:35.580Z,7.72
2018-08-23T14:08:04.039Z,7.70
2018-08-23T14:10:32.557Z,7.67
2018-08-23T14:13:01.130Z,7.62
2018-08-23T14:15:35.138Z,7.42
2018-08-23T14:18:03.654Z,8.00
2018-08-23T14:20:32.202Z,8.28
2018-08-23T14:23:00.720Z,8.38
2018-08-23T14:25:29.235Z,7.28
2018-08-23T14:27:57.715Z,7.75
2018-08-23T14:30:26.251Z,7.80
2018-08-23T14:32:54.872Z,7.87
2018-08-23T14:35:23.224Z,7.90
2018-08-23T14:37:51.688Z,7.08
2018-08-23T14:40:20.277Z,6.05
2018-08-23T14:42:48.783Z,6.03
2018-08-23T14:45:22.433Z,6.00
2018-08-23T14:47:56.380Z,7.90
2018-08-23T14:50:24.899Z,7.62
2018-08-23T14:52:53.371Z,6.80
2018-08-23T14:55:27.310Z,9.98
2018-08-23T14:57:55.870Z,10.03
2018-08-23T15:00:24.281Z,8.33
2018-08-23T15:02:52.764Z,8.68
2018-08-23T15:05:21.261Z,8.15
2018-08-23T15:07:49.792Z,8.40
2018-08-23T15:10:18.301Z,7.85
2018-08-23T15:12:46.769Z,7.97
2018-08-23T15:15:15.252Z,7.78
2018-08-23T15:17:43.872Z,8.58
2018-08-23T15:20:12.339Z,8.35
2018-08-23T15:22:40.791Z,7.78
2018-08-23T15:25:09.379Z,8.23
2018-08-23T15:27:37.834Z,7.53
2018-08-23T15:30:06.390Z,7.92
2018-08-23T15:32:34.802Z,7.35
2018-08-23T15:35:03.306Z,7.55
2018-08-23T15:37:31.764Z,8.50
2018-08-23T15:40:00.224Z,8.13
2018-08-23T15:42:28.661Z,8.30
2018-08-23T15:44:57.107Z,7.37
2018-08-23T15:47:25.568Z,8.45
2018-08-23T15:49:54.053Z,8.10
2018-08-23T15:52:22.548Z,7.80
2018-08-23T15:54:51.117Z,7.90
2018-08-23T15:57:19.735Z,8.10
2018-08-23T15:59:48.204Z,8.50
2018-08-23T16:02:16.645Z,8.43
2018-08-23T16:04:45.153Z,8.75
2018-08-23T16:07:13.998Z,8.35
2018-08-23T16:09:42.429Z,9.53
2018-08-23T16:12:10.879Z,8.88
2018-08-23T16:14:39.357Z,8.53
2018-08-23T16:17:13.164Z,9.10
2018-08-23T16:19:46.811Z,9.33
2018-08-23T16:22:15.286Z,9.00
2018-08-23T16:24:43.724Z,8.58
2018-08-23T16:27:12.206Z,9.30
2018-08-23T16:29:44.903Z,8.50
2018-08-23T16:32:17.619Z,9.28
2018-08-23T16:34:46.088Z,8.43
2018-08-23T16:37:14.524Z,9.48
2018-08-23T16:39:42.996Z,8.55
2018-08-23T16:42:11.495Z,8.43
2018-08-23T16:44:39.951Z,9.65
2018-08-23T16:47:08.495Z,9.10
2018-08-23T16:49:37.148Z,8.83
2018-08-23T16:52:05.647Z,9.03
2018-08-23T16:54:34.084Z,9.80
2018-08-23T16:57:02.605Z,9.13
2018-08-23T16:59:31.099Z,8.98
2018-08-23T17:01:59.677Z,9.53
2018-08-23T17:04:33.519Z,9.23
2018-08-23T17:07:02.054Z,8.75
2018-08-23T17:09:30.476Z,9.90
2018-08-23T17:11:58.965Z,8.98
2018-08-23T17:14:27.493Z,9.15
2018-08-23T17:17:01.181Z,9.18
2018-08-23T17:19:29.668Z,9.45
2018-08-23T17:21:58.344Z,9.20
2018-08-23T17:24:26.899Z,9.80
2018-08-23T17:26:55.340Z,8.93
2018-08-23T17:29:23.803Z,9.30
2018-08-23T17:31:52.259Z,9.40
2018-08-23T17:34:20.759Z,9.65
2018-08-23T17:36:49.213Z,11.05
2018-08-23T17:39:17.672Z,10.40
2018-08-23T17:41:46.149Z,9.70
2018-08-23T17:44:14.575Z,8.98
2018-08-23T17:46:43.109Z,10.05
2018-08-23T17:49:11.681Z,10.03
2018-08-23T17:51:40.262Z,9.90
2018-08-23T17:54:08.751Z,10.13
2018-08-23T17:56:37.178Z,10.90
2018-08-23T17:59:05.664Z,10.28
2018-08-23T18:01:34.145Z,10.78
2018-08-23T18:04:02.660Z,11.73
2018-08-23T18:06:31.115Z,12.40
2018-08-23T18:08:59.612Z,12.05
2018-08-23T18:11:28.056Z,12.95
2018-08-23T18:13:56.582Z,11.60
2018-08-23T18:16:30.540Z,12.00
2018-08-23T18:18:59.022Z,11.22
2018-08-23T18:21:27.549Z,11.20
2018-08-23T18:23:56.063Z,11.57
2018-08-23T18:26:24.584Z,11.33
2018-08-23T18:28:53.085Z,11.63
2018-08-23T18:31:21.746Z,11.03
2018-08-23T18:33:50.386Z,13.28
2018-08-23T18:36:18.859Z,12.28
2018-08-23T18:38:47.353Z,12.58
2018-08-23T18:41:15.912Z,11.33
2018-08-23T18:43:44.446Z,12.15
2018-08-23T18:46:12.913Z,11.60
2018-08-23T18:48:41.439Z,11.57
2018-08-23T18:51:10.007Z,12.65
2018-08-23T18:53:38.530Z,12.28
2018-08-23T18:56:06.988Z,11.75
2018-08-23T18:58:35.544Z,13.15
2018-08-23T19:01:04.072Z,12.00
2018-08-23T19:03:32.560Z,12.82
2018-08-23T19:06:01.057Z,13.08
2018-08-23T19:08:29.558Z,11.80
2018-08-23T19:10:58.093Z,12.63
2018-08-23T19:13:26.728Z,12.15
2018-08-23T19:16:00.469Z,12.35
2018-08-23T19:18:28.982Z,10.78
2018-08-23T19:20:58.144Z,10.80
2018-08-23T19:23:26.639Z,12.00
2018-08-23T19:25:55.147Z,11.73
2018-08-23T19:28:23.648Z,12.30
2018-08-23T19:30:52.159Z,11.48
2018-08-23T19:33:20.610Z,11.48
2018-08-23T19:35:49.171Z,12.23
2018-08-23T19:38:17.652Z,11.80
2018-08-23T19:40:46.201Z,12.10
2018-08-23T19:43:14.679Z,12.53
2018-08-23T19:45:48.355Z,13.20
2018-08-23T19:48:17.048Z,13.20
2018-08-23T19:50:45.404Z,13.13
2018-08-23T19:53:13.931Z,13.47
2018-08-23T19:55:42.419Z,12.80
2018-08-23T19:58:10.928Z,13.00
2018-08-23T20:00:39.433Z,14.40
2018-08-23T20:03:07.900Z,12.93
2018-08-23T20:05:36.390Z,13.43
2018-08-23T20:08:04.836Z,13.07
2018-08-23T20:10:33.374Z,13.50
2018-08-23T20:13:01.846Z,13.03
2018-08-23T20:15:30.314Z,13.27
2018-08-23T20:17:58.833Z,13.57
2018-08-23T20:20:33.887Z,13.17
2018-08-23T20:23:02.385Z,14.20
2018-08-23T20:25:30.821Z,13.27
2018-08-23T20:27:59.309Z,13.13
2018-08-23T20:30:27.843Z,13.07
2018-08-23T20:32:56.339Z,14.40
2018-08-23T20:35:24.916Z,12.83
2018-08-23T20:37:53.512Z,13.57
2018-08-23T20:40:21.999Z,12.67
2018-08-23T20:42:50.486Z,13.40
2018-08-23T20:45:19.184Z,11.27
2018-08-23T20:47:47.655Z,12.17
2018-08-23T20:50:16.125Z,12.77
2018-08-23T20:52:44.695Z,12.50
2018-08-23T20:55:13.212Z,12.43
2018-08-23T20:57:41.721Z,12.77
2018-08-23T21:00:10.245Z,12.43
2018-08-23T21:02:39.119Z,12.27
2018-08-23T21:05:07.619Z,12.70
2018-08-23T21:07:36.113Z,13.53
2018-08-23T21:10:04.700Z,12.10
2018-08-23T21:12:33.150Z,12.97
2018-08-23T21:15:01.619Z,12.40
2018-08-23T21:17:30.056Z,11.93
2018-08-23T21:19:58.541Z,11.93
2018-08-23T21:22:26.991Z,13.10
2018-08-23T21:24:55.489Z,13.10
2018-08-23T21:27:24.050Z,13.27
2018-08-23T21:29:52.522Z,12.23
2018-08-23T21:32:21.083Z,12.80
2018-08-23T21:34:49.570Z,12.93
2018-08-23T21:37:18.063Z,13.40
2018-08-23T21:39:46.549Z,13.40
2018-08-23T21:42:15.052Z,14.30
2018-08-23T21:44:43.512Z,12.97
2018-08-23T21:47:11.983Z,13.00
2018-08-23T21:49:40.504Z,13.13
2018-08-23T21:52:09.011Z,13.47
2018-08-23T21:54:37.494Z,12.13
2018-08-23T21:57:06.004Z,13.07
2018-08-23T21:59:34.450Z,12.57
2018-08-23T22:02:08.190Z,13.30
2018-08-23T22:04:42.024Z,13.50
2018-08-23T22:07:10.523Z,13.00
2018-08-23T22:09:39.139Z,13.20
2018-08-23T22:12:07.629Z,13.83
2018-08-23T22:14:36.116Z,13.27
2018-08-23T22:17:04.592Z,13.23
2018-08-23T22:19:33.088Z,13.90
2018-08-23T22:22:01.562Z,13.20
2018-08-23T22:24:30.805Z,13.03
2018-08-23T22:26:59.321Z,13.13
2018-08-23T22:29:27.764Z,13.70
2018-08-23T22:31:56.305Z,12.70
2018-08-23T22:34:24.785Z,12.47
2018-08-23T22:36:53.352Z,12.37
2018-08-23T22:39:21.833Z,13.60
2018-08-23T22:41:50.402Z,12.53
2018-08-23T22:44:18.942Z,12.70
2018-08-23T22:46:47.760Z,14.47
2018-08-23T22:49:16.265Z,13.37
2018-08-23T22:51:44.739Z,12.30
2018-08-23T22:54:13.244Z,13.90
2018-08-23T22:56:41.891Z,12.53
2018-08-23T22:59:10.425Z,13.10
2018-08-23T23:01:39.198Z,12.50
2018-08-23T23:04:12.843Z,12.90
2018-08-23T23:06:41.656Z,12.03
2018-08-23T23:09:12.903Z,13.40
2018-08-23T23:11:41.737Z,12.63
2018-08-23T23:14:10.268Z,13.17
2018-08-23T23:16:38.713Z,13.80
2018-08-23T23:19:07.195Z,14.73
2018-08-23T23:21:35.663Z,13.70
2018-08-23T23:24:04.158Z,14.23
2018-08-23T23:26:32.688Z,13.83
2018-08-23T23:29:01.199Z,13.03
2018-08-23T23:31:29.695Z,13.67
2018-08-23T23:33:58.268Z,15.83
2018-08-23T23:36:26.746Z,14.73
2018-08-23T23:38:55.243Z,15.30
2018-08-23T23:41:23.762Z,15.03
2018-08-23T23:43:52.263Z,14.13
2018-08-23T23:46:20.762Z,13.50
2018-08-23T23:48:49.246Z,13.70
2018-08-23T23:51:17.732Z,13.67
2018-08-23T23:53:46.246Z,13.43
2018-08-23T23:56:14.730Z,14.47
2018-08-23T23:58:43.251Z,14.20
